Est de la Fuente, Puerto Rico
Current Conditions -  °F | °C
As of 8:56 PM on Friday 21 Nov 2014 (Local Time) from TJSJ Reporting Station
Light Rain Light Rain  
Wind Chill: 77°   Ceiling: 6000
Heat Index: 78°   Visibility: 5mi
Dew Point: 75°   Wind: 9mph
Humidity: 94%   Direction: 90°E
Pressure: 30.02"   Gusts: NA
Location:  18.3893°N, 66.2481°W
Report Text: TJSJ 220056Z 09008KT 5SM -RA BR SCT033 SCT048 BKN060 25/24 A3002 RMK AO2 RAB12 SLP165 P0002 T02500239
Loading
Personal Weather Stations






























Interactive Weather Map New forecast layout! Learn more

10-Day Weather Forecast

Advertisements
Track Severe Weather on mobile